createdAt,value
2023-02-28T00:06:40.908Z,20.90
2023-02-28T00:11:09.854Z,19.70
2023-02-28T00:15:39.007Z,19.40
2023-02-28T00:20:09.240Z,17.90
2023-02-28T00:24:39.640Z,17.80
2023-02-28T00:29:10.032Z,17.70
2023-02-28T00:33:14.649Z,17.30
2023-02-28T00:55:52.149Z,18.70
2023-02-28T01:00:20.900Z,17.80
2023-02-28T01:04:49.844Z,16.70
2023-02-28T01:23:09.257Z,18.80
2023-02-28T01:27:29.527Z,16.30
2023-02-28T01:31:50.057Z,14.90
2023-02-28T01:53:37.672Z,26.00
2023-02-28T01:58:00.807Z,23.10
2023-02-28T02:02:29.955Z,22.50
2023-02-28T02:10:52.998Z,16.30
2023-02-28T02:15:33.794Z,14.10
2023-02-28T02:20:07.329Z,13.70
2023-02-28T02:25:06.852Z,13.40
2023-02-28T02:46:50.329Z,23.40
2023-02-28T02:51:19.596Z,24.50
2023-02-28T03:08:39.347Z,28.40
2023-02-28T03:13:14.253Z,28.30
2023-02-28T03:17:55.408Z,25.60
2023-02-28T03:44:35.369Z,25.00
2023-02-28T03:49:20.609Z,25.60
2023-02-28T03:53:55.777Z,28.60
2023-02-28T03:58:29.368Z,30.70
2023-02-28T04:02:44.049Z,27.90
2023-02-28T04:21:19.725Z,28.30
2023-02-28T04:25:48.710Z,29.40
2023-02-28T04:30:19.938Z,26.90
2023-02-28T04:34:48.686Z,25.50
2023-02-28T04:39:23.454Z,24.60
2023-02-28T04:47:47.577Z,24.90
2023-02-28T04:52:16.772Z,27.10
2023-02-28T04:56:45.538Z,24.90
2023-02-28T05:01:11.844Z,26.60
2023-02-28T05:18:23.720Z,22.50
2023-02-28T05:22:56.056Z,20.20
2023-02-28T05:27:26.290Z,19.80
2023-02-28T05:44:11.552Z,16.40
2023-02-28T05:48:40.990Z,17.30
2023-02-28T05:53:03.235Z,16.30
2023-02-28T05:57:23.978Z,14.70
2023-02-28T06:02:11.807Z,16.80
2023-02-28T06:06:43.514Z,16.70
2023-02-28T06:32:30.008Z,15.70
2023-02-28T06:36:51.701Z,16.40
2023-02-28T06:41:20.552Z,19.70
2023-02-28T06:45:31.173Z,20.00
2023-02-28T06:49:45.698Z,26.90
2023-02-28T06:54:08.217Z,25.90
2023-02-28T07:33:00.372Z,34.70
2023-02-28T07:37:29.869Z,32.00
2023-02-28T07:41:52.444Z,31.00
2023-02-28T07:46:21.896Z,31.70
2023-02-28T07:50:51.504Z,31.00
2023-02-28T07:55:20.444Z,30.10
2023-02-28T07:59:49.627Z,25.70
2023-02-28T08:03:56.412Z,25.00
2023-02-28T08:08:10.309Z,22.30
2023-02-28T08:12:38.364Z,21.70
2023-02-28T08:17:07.379Z,19.90
2023-02-28T08:21:26.160Z,16.80
2023-02-28T08:46:56.925Z,15.70
2023-02-28T08:51:10.376Z,13.60
2023-02-28T08:55:29.895Z,12.50
2023-02-28T08:59:09.178Z,12.80
2023-02-28T09:03:37.914Z,10.60
2023-02-28T09:07:36.943Z,10.70
2023-02-28T09:12:04.034Z,9.70
2023-02-28T09:16:20.953Z,8.10
2023-02-28T09:20:32.647Z,7.90
2023-02-28T09:24:47.893Z,7.30
2023-02-28T09:29:08.099Z,7.50
2023-02-28T09:33:15.088Z,6.40
2023-02-28T09:37:35.598Z,6.30
2023-02-28T09:41:57.419Z,6.90
2023-02-28T09:46:27.569Z,6.20
2023-02-28T09:51:10.496Z,6.50
2023-02-28T09:55:23.612Z,6.10
2023-02-28T09:59:55.720Z,4.90
2023-02-28T10:34:39.280Z,3.50
2023-02-28T10:43:08.743Z,3.10
2023-02-28T11:17:55.625Z,2.40
2023-02-28T11:22:13.716Z,2.30
2023-02-28T11:26:39.909Z,2.60
2023-02-28T11:31:02.446Z,2.10
2023-02-28T11:35:22.739Z,2.30
2023-02-28T11:39:33.289Z,2.90
2023-02-28T12:01:17.229Z,1.90
2023-02-28T12:05:44.984Z,2.30
2023-02-28T12:10:19.952Z,1.60
2023-02-28T12:14:54.490Z,1.60
2023-02-28T12:19:20.504Z,3.50
2023-02-28T12:23:54.021Z,2.50
2023-02-28T12:28:16.702Z,2.30
2023-02-28T12:32:28.076Z,2.30
2023-02-28T12:41:07.300Z,2.20
2023-02-28T12:49:57.820Z,2.10
2023-02-28T12:54:33.141Z,1.90
2023-02-28T12:59:20.963Z,2.40
2023-02-28T13:03:18.393Z,2.10
2023-02-28T13:07:37.393Z,2.30
2023-02-28T13:11:46.005Z,2.00
2023-02-28T13:15:46.428Z,2.70
2023-02-28T13:19:47.180Z,2.80
2023-02-28T13:24:02.083Z,2.70
2023-02-28T13:27:57.745Z,2.40
2023-02-28T13:32:23.335Z,3.00
2023-02-28T13:36:58.274Z,2.60
2023-02-28T13:53:07.568Z,2.50
2023-02-28T13:56:32.251Z,2.40
2023-02-28T14:00:13.505Z,3.10
2023-02-28T14:03:54.882Z,2.80
2023-02-28T14:07:43.124Z,2.60
2023-02-28T14:11:04.851Z,2.60
2023-02-28T14:14:24.515Z,3.30
2023-02-28T14:17:11.751Z,3.00
2023-02-28T14:21:36.675Z,3.00
2023-02-28T14:25:58.512Z,3.50
2023-02-28T14:30:38.428Z,2.60
2023-02-28T14:35:17.388Z,2.70
2023-02-28T14:44:19.557Z,3.00
2023-02-28T14:48:26.770Z,2.90
2023-02-28T14:52:50.961Z,3.00
2023-02-28T14:56:48.597Z,3.00
2023-02-28T15:01:16.492Z,2.70
2023-02-28T15:09:16.149Z,3.30
2023-02-28T15:13:15.873Z,2.90
2023-02-28T15:17:10.965Z,2.90
2023-02-28T15:29:48.454Z,2.80
2023-02-28T15:34:20.051Z,2.60
2023-02-28T15:45:08.489Z,3.70
2023-02-28T15:49:13.560Z,3.70
2023-02-28T15:53:22.646Z,4.40
2023-02-28T15:57:34.508Z,3.80
2023-02-28T16:01:41.670Z,3.80
2023-02-28T16:39:07.477Z,2.40
2023-02-28T16:43:38.742Z,2.50
2023-02-28T16:48:00.203Z,2.30
2023-02-28T17:14:23.100Z,7.20
2023-02-28T17:18:48.412Z,8.10
2023-02-28T17:44:55.889Z,7.20
2023-02-28T17:49:17.512Z,14.40
2023-02-28T17:53:39.078Z,32.80
2023-02-28T18:15:11.547Z,31.40
2023-02-28T18:19:30.838Z,32.50
2023-02-28T18:24:00.898Z,30.40
2023-02-28T18:28:29.885Z,30.30
2023-02-28T18:33:00.591Z,33.30
2023-02-28T18:37:00.501Z,43.40
2023-02-28T18:41:33.686Z,60.60
2023-02-28T19:16:23.324Z,56.10
2023-02-28T19:20:52.670Z,43.60
2023-02-28T19:25:23.580Z,41.30
2023-02-28T19:50:45.548Z,35.00
2023-02-28T19:54:54.880Z,37.20
2023-02-28T19:59:35.682Z,35.50
2023-02-28T20:32:03.467Z,34.60
2023-02-28T20:36:06.352Z,29.90
2023-02-28T20:40:27.023Z,32.40
2023-02-28T20:44:47.504Z,36.30
2023-02-28T20:48:59.356Z,37.50
2023-02-28T21:09:55.756Z,47.00
2023-02-28T21:14:17.962Z,39.70
2023-02-28T21:18:46.729Z,33.10
2023-02-28T21:23:15.990Z,29.60
2023-02-28T21:27:45.544Z,30.90
2023-02-28T21:45:05.457Z,16.40
2023-02-28T21:49:34.209Z,12.30
2023-02-28T21:54:03.492Z,7.30
2023-02-28T21:58:33.121Z,6.40
2023-02-28T22:24:39.652Z,7.10
2023-02-28T22:29:07.898Z,9.80
2023-02-28T22:33:36.683Z,14.10
2023-02-28T22:38:05.098Z,16.40
2023-02-28T22:42:21.017Z,26.40
2023-02-28T23:04:03.408Z,33.70
2023-02-28T23:08:32.618Z,28.40
2023-02-28T23:12:54.315Z,26.20
2023-02-28T23:17:25.762Z,21.10
2023-02-28T23:38:58.015Z,33.50
2023-02-28T23:43:27.226Z,34.70
2023-02-28T23:47:39.508Z,38.00
